createdAt,value
2023-03-19T00:00:46.542Z,55.53
2023-03-19T00:03:13.831Z,55.78
2023-03-19T00:05:42.035Z,53.55
2023-03-19T00:08:09.100Z,48.25
2023-03-19T00:10:40.019Z,33.65
2023-03-19T00:13:07.369Z,45.15
2023-03-19T00:15:34.742Z,43.30
2023-03-19T00:18:02.452Z,45.28
2023-03-19T00:20:29.691Z,38.00
2023-03-19T00:22:57.270Z,37.33
2023-03-19T00:25:24.598Z,32.20
2023-03-19T00:27:53.235Z,41.67
2023-03-19T00:30:21.720Z,47.70
2023-03-19T00:32:49.209Z,36.88
2023-03-19T00:35:17.442Z,40.33
2023-03-19T00:37:44.498Z,37.30
2023-03-19T00:40:12.320Z,31.95
2023-03-19T00:42:39.671Z,31.65
2023-03-19T00:45:07.826Z,36.92
2023-03-19T00:47:35.324Z,33.70
2023-03-19T00:50:04.681Z,35.72
2023-03-19T00:52:32.352Z,41.35
2023-03-19T00:54:59.685Z,35.60
2023-03-19T00:57:27.158Z,40.20
2023-03-19T00:59:54.440Z,42.22
2023-03-19T01:02:22.126Z,57.15
2023-03-19T01:04:49.608Z,46.88
2023-03-19T01:07:17.018Z,44.53
2023-03-19T01:09:44.504Z,41.17
2023-03-19T01:12:11.960Z,39.78
2023-03-19T01:14:39.869Z,35.80
2023-03-19T01:17:07.332Z,33.28
2023-03-19T01:19:34.813Z,34.80
2023-03-19T01:22:02.537Z,41.90
2023-03-19T01:24:32.183Z,35.35
2023-03-19T01:26:59.670Z,30.27
2023-03-19T01:29:32.251Z,27.77
2023-03-19T01:32:08.352Z,34.45
2023-03-19T01:34:44.461Z,34.17
2023-03-19T01:37:15.563Z,30.63
2023-03-19T01:39:43.903Z,32.80
2023-03-19T01:42:14.130Z,31.63
2023-03-19T01:44:57.611Z,36.38
2023-03-19T01:47:39.504Z,30.58
2023-03-19T01:50:29.073Z,33.45
2023-03-19T01:53:17.769Z,36.00
2023-03-19T01:56:13.154Z,31.77
2023-03-19T01:59:09.951Z,33.97
2023-03-19T02:02:16.827Z,32.25
2023-03-19T02:04:47.757Z,30.85
2023-03-19T02:07:16.060Z,32.47
2023-03-19T02:09:44.141Z,32.70
2023-03-19T02:12:12.852Z,32.13
2023-03-19T02:14:40.292Z,33.65
2023-03-19T02:17:08.793Z,36.63
2023-03-19T02:19:47.276Z,33.58
2023-03-19T02:22:18.072Z,34.05
2023-03-19T02:25:02.952Z,34.35
2023-03-19T02:27:31.197Z,34.60
2023-03-19T02:29:58.407Z,31.05
2023-03-19T02:32:26.849Z,32.35
2023-03-19T02:34:54.032Z,35.13
2023-03-19T02:37:30.072Z,35.00
2023-03-19T02:40:04.693Z,29.90
2023-03-19T02:42:32.294Z,27.80
2023-03-19T02:44:59.655Z,30.55
2023-03-19T02:47:27.596Z,40.05
2023-03-19T02:49:55.365Z,42.00
2023-03-19T02:52:23.411Z,44.78
2023-03-19T02:54:51.191Z,44.95
2023-03-19T02:57:18.471Z,37.03
2023-03-19T02:59:45.936Z,31.10
2023-03-19T03:02:13.510Z,37.67
2023-03-19T03:04:42.346Z,27.58
2023-03-19T03:07:10.218Z,24.10
2023-03-19T03:09:37.421Z,32.42
2023-03-19T03:12:05.112Z,31.00
2023-03-19T03:14:32.362Z,42.78
2023-03-19T03:17:03.529Z,34.25
2023-03-19T03:19:31.425Z,28.83
2023-03-19T03:21:59.265Z,39.28
2023-03-19T03:24:26.750Z,39.35
2023-03-19T03:26:54.420Z,47.42
2023-03-19T03:29:22.025Z,38.17
2023-03-19T03:31:49.134Z,39.45
2023-03-19T03:34:16.721Z,49.13
2023-03-19T03:36:44.334Z,45.88
2023-03-19T03:39:12.054Z,41.47
2023-03-19T03:41:39.547Z,33.10
2023-03-19T03:44:07.202Z,38.00
2023-03-19T03:46:38.828Z,35.67
2023-03-19T03:49:07.320Z,29.52
2023-03-19T03:51:36.305Z,37.08
2023-03-19T03:54:04.319Z,25.88
2023-03-19T03:56:33.573Z,38.80
2023-03-19T03:59:04.313Z,35.28
2023-03-19T04:01:31.669Z,35.10
2023-03-19T04:04:00.125Z,39.78
2023-03-19T04:06:28.877Z,37.75
2023-03-19T04:09:14.037Z,29.73
2023-03-19T04:11:42.631Z,35.45
2023-03-19T04:14:10.345Z,35.63
2023-03-19T04:16:39.807Z,31.27
2023-03-19T04:19:08.088Z,30.80
2023-03-19T04:21:36.078Z,31.42
2023-03-19T04:24:03.900Z,31.10
2023-03-19T04:26:31.883Z,34.40
2023-03-19T04:28:59.278Z,35.72
2023-03-19T04:31:27.573Z,32.42
2023-03-19T04:33:55.407Z,30.60
2023-03-19T04:36:22.798Z,31.70
2023-03-19T04:38:50.129Z,33.63
2023-03-19T04:41:18.214Z,30.75
2023-03-19T04:44:00.115Z,32.47
2023-03-19T04:46:29.343Z,36.25
2023-03-19T04:48:57.143Z,29.77
2023-03-19T04:51:25.173Z,32.90
2023-03-19T04:53:52.455Z,34.40
2023-03-19T04:56:20.056Z,33.35
2023-03-19T04:58:48.077Z,37.60
2023-03-19T05:01:17.464Z,32.60
2023-03-19T05:04:03.715Z,34.33
2023-03-19T05:06:34.710Z,34.38
2023-03-19T05:09:03.075Z,33.70
2023-03-19T05:11:30.489Z,29.38
2023-03-19T05:14:04.756Z,29.40
2023-03-19T05:16:43.684Z,38.58
2023-03-19T05:19:10.801Z,32.45
2023-03-19T05:21:39.517Z,40.53
2023-03-19T05:24:07.826Z,32.72
2023-03-19T05:26:38.014Z,33.28
2023-03-19T05:29:46.406Z,32.20
2023-03-19T05:32:34.208Z,36.65
2023-03-19T05:35:04.443Z,37.20
2023-03-19T05:37:34.655Z,34.38
2023-03-19T05:40:02.166Z,34.70
2023-03-19T05:42:30.332Z,33.38
2023-03-19T05:44:59.340Z,34.97
2023-03-19T05:47:29.169Z,37.10
2023-03-19T05:50:02.708Z,34.03
2023-03-19T05:52:31.847Z,30.38
2023-03-19T05:55:01.069Z,30.67
2023-03-19T05:57:44.819Z,29.27
2023-03-19T06:00:24.119Z,29.42
2023-03-19T06:02:52.149Z,26.10
2023-03-19T06:05:19.707Z,25.67
2023-03-19T06:07:49.168Z,21.30
2023-03-19T06:10:45.681Z,28.38
2023-03-19T06:13:13.901Z,21.20
2023-03-19T06:16:01.700Z,24.38
2023-03-19T06:18:36.981Z,18.33
2023-03-19T06:21:11.855Z,18.10
2023-03-19T06:23:40.061Z,19.73
2023-03-19T06:26:09.965Z,13.43
2023-03-19T06:28:52.650Z,12.27
2023-03-19T06:31:21.678Z,11.48
2023-03-19T06:34:25.136Z,11.45
2023-03-19T06:36:54.517Z,11.60
2023-03-19T06:39:21.931Z,9.23
2023-03-19T06:41:49.957Z,9.20
2023-03-19T06:44:21.884Z,8.45
2023-03-19T06:46:52.649Z,7.72
2023-03-19T06:49:23.202Z,7.55
2023-03-19T06:51:52.022Z,6.63
2023-03-19T06:54:19.754Z,6.25
2023-03-19T06:56:50.039Z,6.55
2023-03-19T06:59:18.634Z,7.47
2023-03-19T07:01:47.296Z,4.70
2023-03-19T07:04:15.893Z,5.18
2023-03-19T07:06:44.297Z,5.78
2023-03-19T07:09:12.159Z,5.75
2023-03-19T07:11:40.032Z,4.38
2023-03-19T07:14:07.851Z,5.05
2023-03-19T07:16:35.953Z,3.65
2023-03-19T07:19:04.409Z,6.13
2023-03-19T07:21:32.581Z,5.72
2023-03-19T07:24:00.312Z,4.68
2023-03-19T07:26:28.414Z,5.90
2023-03-19T07:28:57.052Z,5.22
2023-03-19T07:31:25.376Z,3.67
2023-03-19T07:33:53.848Z,5.20
2023-03-19T07:36:22.025Z,5.57
2023-03-19T07:38:50.275Z,4.95
2023-03-19T07:41:19.735Z,5.50
2023-03-19T07:43:47.462Z,7.18
2023-03-19T07:46:15.936Z,4.90
2023-03-19T07:48:43.629Z,6.07
2023-03-19T07:51:12.226Z,4.57
2023-03-19T07:53:40.133Z,5.95
2023-03-19T07:56:08.098Z,8.15
2023-03-19T07:58:35.730Z,5.45
2023-03-19T08:01:03.993Z,5.40
2023-03-19T08:03:32.733Z,4.95
2023-03-19T08:06:00.498Z,5.63
2023-03-19T08:08:28.610Z,6.75
2023-03-19T08:10:57.431Z,7.05
2023-03-19T08:13:25.803Z,6.97
2023-03-19T08:15:53.992Z,7.60
2023-03-19T08:18:21.334Z,8.20
2023-03-19T08:20:49.831Z,8.30
2023-03-19T08:23:18.150Z,5.72
2023-03-19T08:25:45.942Z,5.18
2023-03-19T08:28:13.680Z,7.45
2023-03-19T08:30:44.457Z,6.53
2023-03-19T08:33:12.986Z,9.07
2023-03-19T08:35:41.561Z,7.88
2023-03-19T08:38:09.351Z,6.95
2023-03-19T08:40:37.431Z,8.57
2023-03-19T08:43:06.064Z,9.48
2023-03-19T08:45:33.925Z,8.15
2023-03-19T08:48:01.520Z,9.05
2023-03-19T08:50:29.476Z,6.13
2023-03-19T08:52:57.874Z,6.57
2023-03-19T08:55:25.964Z,8.15
2023-03-19T08:57:56.944Z,9.52
2023-03-19T09:00:25.260Z,9.25
2023-03-19T09:02:52.657Z,8.60
2023-03-19T09:05:25.138Z,8.10
2023-03-19T09:10:21.210Z,7.45
2023-03-19T09:12:49.127Z,7.38
2023-03-19T09:15:17.469Z,6.53
2023-03-19T09:17:47.322Z,6.85
2023-03-19T09:20:15.869Z,6.65
2023-03-19T09:22:43.503Z,6.10
2023-03-19T09:25:11.786Z,5.65
2023-03-19T09:27:39.327Z,6.28
2023-03-19T09:30:10.192Z,7.30
2023-03-19T09:32:38.443Z,5.50
2023-03-19T09:35:07.332Z,5.18
2023-03-19T09:37:35.591Z,6.88
2023-03-19T09:40:06.718Z,6.97
2023-03-19T09:43:00.372Z,6.35
2023-03-19T09:45:30.932Z,7.07
2023-03-19T09:48:07.184Z,5.85
2023-03-19T09:50:38.467Z,7.75
2023-03-19T09:53:32.790Z,5.75
2023-03-19T09:56:03.137Z,5.38
2023-03-19T09:58:35.904Z,7.40
2023-03-19T10:01:04.427Z,5.65
2023-03-19T10:03:32.176Z,6.22
2023-03-19T10:06:25.801Z,5.57
2023-03-19T10:09:01.956Z,7.03
2023-03-19T10:12:00.372Z,6.32
2023-03-19T10:15:09.247Z,6.10
2023-03-19T10:17:49.260Z,5.80
2023-03-19T10:20:20.863Z,5.68
2023-03-19T10:22:54.862Z,6.43
2023-03-19T10:25:28.140Z,9.45
2023-03-19T10:28:06.196Z,5.78
2023-03-19T10:30:35.433Z,6.95
2023-03-19T10:33:21.242Z,7.60
2023-03-19T10:35:57.075Z,7.68
2023-03-19T10:38:27.248Z,7.45
2023-03-19T10:41:25.287Z,6.38
2023-03-19T10:43:59.363Z,5.63
2023-03-19T10:46:26.938Z,7.28
2023-03-19T10:48:54.629Z,7.18
2023-03-19T10:51:26.696Z,7.60
2023-03-19T10:53:57.251Z,5.68
2023-03-19T10:56:28.067Z,5.90
2023-03-19T10:59:07.532Z,6.80
2023-03-19T11:01:40.966Z,5.35
2023-03-19T11:04:19.979Z,5.35
2023-03-19T11:06:55.838Z,5.32
2023-03-19T11:09:45.055Z,5.82
2023-03-19T11:12:27.384Z,5.72
2023-03-19T11:14:58.388Z,5.63
2023-03-19T11:17:47.002Z,6.10
2023-03-19T11:20:36.786Z,6.43
2023-03-19T11:23:13.196Z,6.10
2023-03-19T11:25:43.086Z,6.38
2023-03-19T11:28:15.080Z,6.60
2023-03-19T11:31:07.520Z,5.88
2023-03-19T11:34:13.261Z,8.13
2023-03-19T11:37:09.102Z,5.22
2023-03-19T11:39:46.070Z,6.57
2023-03-19T11:42:51.515Z,8.00
2023-03-19T11:45:44.663Z,6.03
2023-03-19T11:48:27.473Z,6.50
2023-03-19T11:51:18.799Z,7.38
2023-03-19T11:53:57.536Z,8.32
2023-03-19T11:56:40.632Z,5.28
2023-03-19T11:59:42.072Z,5.32
2023-03-19T12:02:26.080Z,6.70
2023-03-19T12:05:00.933Z,6.95
2023-03-19T12:07:55.119Z,7.20
2023-03-19T12:10:38.657Z,6.47
2023-03-19T12:13:45.206Z,5.50
2023-03-19T12:16:15.935Z,6.40
2023-03-19T12:19:02.672Z,7.53
2023-03-19T12:21:54.329Z,7.22
2023-03-19T12:24:54.474Z,6.47
2023-03-19T12:27:52.240Z,7.47
2023-03-19T12:30:37.437Z,6.97
2023-03-19T12:33:21.454Z,8.63
2023-03-19T12:35:53.697Z,6.63
2023-03-19T12:38:55.729Z,5.47
2023-03-19T12:41:27.508Z,6.05
2023-03-19T12:43:58.149Z,7.65
2023-03-19T12:46:42.076Z,5.75
2023-03-19T12:49:26.044Z,6.60
2023-03-19T12:52:00.637Z,7.00
2023-03-19T12:54:34.946Z,6.25
2023-03-19T12:57:08.141Z,6.25
2023-03-19T12:59:45.202Z,8.20
2023-03-19T13:02:23.236Z,6.65
2023-03-19T13:04:59.083Z,6.38
2023-03-19T13:07:46.290Z,5.85
2023-03-19T13:10:24.305Z,7.95
2023-03-19T13:12:54.765Z,6.88
2023-03-19T13:15:48.253Z,7.35
2023-03-19T13:18:42.838Z,9.35
2023-03-19T13:21:27.655Z,6.15
2023-03-19T13:24:13.176Z,5.32
2023-03-19T13:26:41.675Z,10.55
2023-03-19T13:29:08.877Z,7.45
2023-03-19T13:31:38.924Z,6.72
2023-03-19T13:34:22.613Z,7.80
2023-03-19T13:37:14.533Z,6.68
2023-03-19T13:39:44.943Z,6.30
2023-03-19T13:42:25.063Z,5.45
2023-03-19T13:44:57.533Z,7.55
2023-03-19T13:47:37.179Z,7.07
2023-03-19T13:50:16.581Z,6.03
2023-03-19T13:52:51.494Z,5.05
2023-03-19T13:55:25.223Z,6.00
2023-03-19T13:58:39.729Z,7.93
2023-03-19T14:01:12.146Z,8.05
2023-03-19T14:06:36.366Z,5.32
2023-03-19T14:09:06.977Z,5.72
2023-03-19T14:11:38.200Z,5.70
2023-03-19T14:14:13.566Z,4.93
2023-03-19T14:16:49.216Z,6.00
2023-03-19T14:19:20.869Z,6.75
2023-03-19T14:22:01.401Z,6.78
2023-03-19T14:24:55.225Z,5.50
2023-03-19T14:27:33.541Z,6.10
2023-03-19T14:30:18.611Z,6.13
2023-03-19T14:32:48.427Z,6.65
2023-03-19T14:35:22.169Z,7.18
2023-03-19T14:37:54.781Z,7.22
2023-03-19T14:40:27.824Z,8.05
2023-03-19T14:43:29.116Z,6.88
2023-03-19T14:46:04.860Z,7.13
2023-03-19T14:48:57.557Z,5.18
2023-03-19T14:51:51.048Z,6.17
2023-03-19T14:54:35.028Z,10.32
2023-03-19T14:57:33.442Z,7.32
2023-03-19T15:00:02.396Z,7.05
2023-03-19T15:02:36.516Z,6.25
2023-03-19T15:05:28.754Z,7.07
2023-03-19T15:08:08.118Z,7.57
2023-03-19T15:10:47.232Z,8.43
2023-03-19T15:13:46.484Z,8.27
2023-03-19T15:16:29.274Z,6.28
2023-03-19T15:18:56.835Z,6.75
2023-03-19T15:21:26.453Z,6.05
2023-03-19T15:23:56.025Z,8.18
2023-03-19T15:26:32.697Z,6.75
2023-03-19T15:29:00.940Z,6.18
2023-03-19T15:31:54.871Z,5.85
2023-03-19T15:34:31.462Z,6.63
2023-03-19T15:37:04.300Z,8.23
2023-03-19T15:39:42.672Z,6.90
2023-03-19T15:42:11.581Z,7.50
2023-03-19T15:44:46.136Z,5.43
2023-03-19T15:47:20.829Z,6.35
2023-03-19T15:49:56.726Z,5.93
2023-03-19T15:52:26.668Z,12.68
2023-03-19T15:54:56.718Z,14.27
2023-03-19T15:57:25.733Z,13.40
2023-03-19T15:59:58.139Z,14.95
2023-03-19T16:02:35.329Z,15.02
2023-03-19T16:05:21.047Z,16.20
2023-03-19T16:07:58.839Z,19.52
2023-03-19T16:10:31.170Z,14.73
2023-03-19T16:13:04.500Z,16.63
2023-03-19T16:15:44.668Z,15.35
2023-03-19T16:18:18.623Z,19.13
2023-03-19T16:21:07.568Z,16.40
2023-03-19T16:23:49.766Z,16.13
2023-03-19T16:26:32.012Z,17.17
2023-03-19T16:29:29.722Z,18.77
2023-03-19T16:32:08.591Z,21.08
2023-03-19T16:34:36.765Z,19.58
2023-03-19T16:37:38.811Z,39.55
2023-03-19T16:40:12.104Z,20.98
2023-03-19T16:42:42.864Z,23.70
2023-03-19T16:45:18.907Z,18.98
2023-03-19T16:47:54.621Z,19.20
2023-03-19T16:50:29.513Z,19.45
2023-03-19T16:53:01.607Z,17.38
2023-03-19T16:55:35.349Z,18.63
2023-03-19T16:58:08.477Z,23.77
2023-03-19T17:00:35.903Z,19.52
2023-03-19T17:03:03.210Z,19.42
2023-03-19T17:05:30.812Z,20.15
2023-03-19T17:07:58.482Z,24.27
2023-03-19T17:10:27.959Z,23.00
2023-03-19T17:12:56.258Z,22.42
2023-03-19T17:15:30.615Z,20.20
2023-03-19T17:17:58.631Z,21.45
2023-03-19T17:20:33.492Z,20.98
2023-03-19T17:23:00.901Z,28.20
2023-03-19T17:25:28.336Z,26.98
2023-03-19T17:27:56.104Z,24.08
2023-03-19T17:30:23.147Z,21.02
2023-03-19T17:32:51.298Z,20.05
2023-03-19T17:35:20.926Z,17.33
2023-03-19T17:37:49.287Z,17.27
2023-03-19T17:40:27.105Z,20.17
2023-03-19T17:42:55.636Z,16.65
2023-03-19T17:45:30.103Z,20.40
2023-03-19T17:47:58.935Z,20.42
2023-03-19T17:50:29.214Z,22.63
2023-03-19T17:52:56.791Z,21.60
2023-03-19T17:55:25.472Z,22.48
2023-03-19T17:57:53.923Z,20.92
2023-03-19T18:00:24.185Z,17.83
2023-03-19T18:02:54.268Z,19.48
2023-03-19T18:05:24.253Z,20.63
2023-03-19T18:07:54.886Z,20.83
2023-03-19T18:10:26.870Z,26.90
2023-03-19T18:12:54.847Z,21.98
2023-03-19T18:15:24.154Z,27.85
2023-03-19T18:17:54.229Z,24.77
2023-03-19T18:20:26.107Z,28.83
2023-03-19T18:22:53.399Z,26.95
2023-03-19T18:25:24.992Z,24.20
2023-03-19T18:27:53.168Z,29.63
2023-03-19T18:30:23.306Z,31.90
2023-03-19T18:32:56.176Z,20.88
2023-03-19T18:35:34.722Z,25.50
2023-03-19T18:38:02.145Z,23.20
2023-03-19T18:40:33.041Z,20.33
2023-03-19T18:43:02.041Z,22.58
2023-03-19T18:45:31.352Z,24.88
2023-03-19T18:47:58.518Z,21.73
2023-03-19T18:50:33.051Z,17.40
2023-03-19T18:53:00.935Z,23.25
2023-03-19T18:55:30.665Z,25.35
2023-03-19T18:58:01.403Z,31.40
2023-03-19T19:00:31.196Z,30.65
2023-03-19T19:03:00.448Z,27.63
2023-03-19T19:05:30.124Z,26.60
2023-03-19T19:07:59.800Z,25.63
2023-03-19T19:10:31.300Z,28.92
2023-03-19T19:12:58.877Z,22.92
2023-03-19T19:15:32.969Z,26.17
2023-03-19T19:18:00.945Z,28.10
2023-03-19T19:20:30.982Z,22.75
2023-03-19T19:22:58.380Z,23.42
2023-03-19T19:25:29.143Z,28.05
2023-03-19T19:28:01.388Z,22.30
2023-03-19T19:30:29.291Z,21.20
2023-03-19T19:32:57.552Z,22.25
2023-03-19T19:35:28.882Z,25.92
2023-03-19T19:37:56.754Z,21.13
2023-03-19T19:40:29.495Z,26.20
2023-03-19T19:42:57.355Z,21.35
2023-03-19T19:45:24.293Z,24.30
2023-03-19T19:47:51.296Z,25.08
2023-03-19T19:50:23.594Z,29.13
2023-03-19T19:52:50.802Z,27.00
2023-03-19T19:55:19.005Z,24.35
2023-03-19T19:57:47.063Z,29.70
2023-03-19T20:00:27.484Z,38.42
2023-03-19T20:02:56.527Z,42.17
2023-03-19T20:05:32.847Z,28.17
2023-03-19T20:08:02.280Z,27.50
2023-03-19T20:10:31.639Z,24.50
2023-03-19T20:13:01.814Z,21.23
2023-03-19T20:15:34.265Z,25.77
2023-03-19T20:18:03.163Z,24.67
2023-03-19T20:20:35.914Z,32.42
2023-03-19T20:25:35.226Z,22.13
2023-03-19T20:28:04.615Z,19.50
2023-03-19T20:30:35.143Z,22.48
2023-03-19T20:33:02.571Z,26.95
2023-03-19T20:35:36.440Z,26.90
2023-03-19T20:38:05.719Z,22.38
2023-03-19T20:40:54.835Z,28.77
2023-03-19T20:43:29.305Z,31.90
2023-03-19T20:46:08.115Z,28.25
2023-03-19T20:48:35.589Z,40.65
2023-03-19T20:51:03.679Z,32.25
2023-03-19T20:53:31.100Z,27.15
2023-03-19T20:56:00.199Z,26.50
2023-03-19T20:58:33.917Z,30.15
2023-03-19T21:01:01.545Z,29.08
2023-03-19T21:03:31.628Z,26.77
2023-03-19T21:06:02.272Z,27.08
2023-03-19T21:08:32.724Z,23.60
2023-03-19T21:11:00.991Z,27.42
2023-03-19T21:13:29.278Z,27.27
2023-03-19T21:15:57.039Z,29.33
2023-03-19T21:18:24.212Z,26.30
2023-03-19T21:20:55.342Z,29.48
2023-03-19T21:23:34.461Z,24.90
2023-03-19T21:26:22.717Z,17.85
2023-03-19T21:28:54.460Z,21.95
2023-03-19T21:31:21.883Z,23.23
2023-03-19T21:33:51.747Z,18.45
2023-03-19T21:36:18.913Z,18.83
2023-03-19T21:38:46.575Z,20.35
2023-03-19T21:41:30.476Z,24.33
2023-03-19T21:44:06.228Z,17.35
2023-03-19T21:46:34.610Z,20.17
2023-03-19T21:49:02.241Z,17.45
2023-03-19T21:51:29.949Z,20.02
2023-03-19T21:53:57.611Z,29.25
2023-03-19T21:56:33.594Z,16.00
2023-03-19T21:59:04.853Z,19.10
2023-03-19T22:01:32.476Z,21.90
2023-03-19T22:04:00.159Z,18.83
2023-03-19T22:06:28.441Z,23.58
2023-03-19T22:08:56.522Z,35.00
2023-03-19T22:11:32.864Z,58.15
2023-03-19T22:14:06.627Z,41.90
2023-03-19T22:16:34.640Z,36.78
2023-03-19T22:19:02.421Z,39.30
2023-03-19T22:21:33.237Z,38.15
2023-03-19T22:24:00.591Z,43.65
2023-03-19T22:26:34.270Z,38.50
2023-03-19T22:29:08.296Z,29.13
2023-03-19T22:31:36.209Z,49.78
2023-03-19T22:34:03.845Z,38.97
2023-03-19T22:36:31.498Z,35.67
2023-03-19T22:38:58.629Z,47.15
2023-03-19T22:41:36.709Z,25.38
2023-03-19T22:44:08.332Z,41.50
2023-03-19T22:46:36.252Z,35.40
2023-03-19T22:49:11.577Z,45.90
2023-03-19T22:51:40.047Z,35.28
2023-03-19T22:54:07.511Z,33.35
2023-03-19T22:56:34.786Z,33.70
2023-03-19T22:59:02.165Z,36.10
2023-03-19T23:01:34.980Z,38.05
2023-03-19T23:04:20.355Z,38.75
2023-03-19T23:06:48.093Z,31.80
2023-03-19T23:09:18.412Z,43.25
2023-03-19T23:11:45.680Z,36.50
2023-03-19T23:14:28.006Z,43.88
2023-03-19T23:19:33.192Z,28.08
2023-03-19T23:22:03.325Z,25.70
2023-03-19T23:24:31.297Z,30.45
2023-03-19T23:27:00.068Z,27.48
2023-03-19T23:29:35.237Z,20.30
2023-03-19T23:32:03.520Z,19.92
2023-03-19T23:34:31.518Z,19.50
2023-03-19T23:37:00.090Z,20.95
2023-03-19T23:39:27.405Z,32.30
2023-03-19T23:41:58.093Z,19.58
2023-03-19T23:44:27.430Z,19.67
2023-03-19T23:46:55.967Z,21.85
2023-03-19T23:49:30.518Z,24.27
2023-03-19T23:51:57.775Z,16.98
2023-03-19T23:54:30.731Z,31.30
2023-03-19T23:56:59.869Z,30.88
2023-03-19T23:59:35.111Z,27.13
